Time;durP1;ratioP1;P1;durP2;ratioP2;P2;SDS_P1;SDS_P2;PMS_P1;PMS_P2;Temp;Humidity;BMP_temperature;BMP_pressure;BME280_temperature;BME280_humidity;BME280_pressure;Samples;Min_cycle;Max_cycle;Signal;HPM_P1;HPM_P2
2023/01/17 00:01:09;;;;;;;23.17;8.70;;;-2.00;99.90;;;;;;4941466;29;20024;-94
2023/01/17 00:11:58;;;;;;;26.23;10.80;;;-1.70;99.90;;;;;;4955459;28;20030;-94
2023/01/17 00:14:26;;;;;;;27.65;10.88;;;-1.70;99.90;;;;;;4938171;28;20020;-93
2023/01/17 00:16:51;;;;;;;27.05;11.38;;;-1.70;99.90;;;;;;4935794;29;20016;-93
2023/01/17 01:34:16;;;;;;;15.48;6.18;;;-0.60;99.90;;;;;;4945139;29;20492;-94
2023/01/17 01:36:41;;;;;;;12.50;5.38;;;-0.60;99.90;;;;;;4931018;29;20028;-95
2023/01/17 01:39:07;;;;;;;11.32;5.72;;;-0.60;99.90;;;;;;4930085;29;20044;-93
2023/01/17 01:41:33;;;;;;;18.77;5.82;;;-0.60;99.90;;;;;;4944066;29;20111;-94
2023/01/17 01:43:58;;;;;;;12.88;6.65;;;-0.60;99.90;;;;;;4924750;29;20100;-95
2023/01/17 01:46:27;;;;;;;16.77;6.63;;;-0.60;99.90;;;;;;4927480;29;20024;-96
2023/01/17 01:48:57;;;;;;;13.68;6.63;;;-0.60;99.90;;;;;;4943668;29;20105;-95
2023/01/17 01:51:31;;;;;;;14.95;6.80;;;-0.50;99.90;;;;;;4943362;29;20083;-94
2023/01/17 01:54:05;;;;;;;12.45;6.43;;;-0.50;99.90;;;;;;4943079;29;20024;-94
2023/01/17 01:56:32;;;;;;;11.93;5.95;;;-0.60;99.90;;;;;;4937019;29;20026;-94
2023/01/17 01:59:00;;;;;;;14.73;5.53;;;-0.50;99.90;;;;;;4947063;29;20053;-94
2023/01/17 02:01:25;;;;;;;10.25;4.55;;;-0.50;99.90;;;;;;4932657;29;20056;-92
2023/01/17 02:03:51;;;;;;;10.45;5.00;;;-0.60;99.90;;;;;;4930574;29;20390;-94
2023/01/17 02:06:34;;;;;;;10.00;4.85;;;-0.60;99.90;;;;;;4944620;29;20032;-94
2023/01/17 02:09:05;;;;;;;10.55;4.30;;;-0.60;99.90;;;;;;4943383;29;20035;-94
2023/01/17 02:11:32;;;;;;;10.45;4.80;;;-0.70;99.90;;;;;;4941887;29;20035;-94
2023/01/17 02:13:58;;;;;;;13.30;5.57;;;-0.70;99.90;;;;;;4923832;29;20032;-93
2023/01/17 02:16:58;;;;;;;11.15;4.88;;;-0.80;99.90;;;;;;4925911;29;20026;-94
2023/01/17 02:19:41;;;;;;;9.80;5.35;;;-0.90;99.90;;;;;;4924725;29;20117;-94
2023/01/17 02:22:10;;;;;;;10.73;5.15;;;-1.00;99.90;;;;;;4926491;29;20039;-93
2023/01/17 02:24:54;;;;;;;11.32;4.65;;;-0.90;99.90;;;;;;4926602;29;20042;-94
2023/01/17 02:27:35;;;;;;;10.85;4.75;;;-1.00;99.90;;;;;;4926412;29;20535;-93
2023/01/17 02:30:31;;;;;;;10.38;5.05;;;-1.00;99.90;;;;;;4921319;29;20032;-96
2023/01/17 02:33:06;;;;;;;12.23;5.05;;;-1.10;99.90;;;;;;4926841;29;20036;-95
2023/01/17 02:35:43;;;;;;;11.20;5.07;;;-1.10;99.90;;;;;;4942290;29;20545;-92
2023/01/17 02:38:23;;;;;;;10.93;4.70;;;-1.10;99.90;;;;;;4942184;29;20040;-95
2023/01/17 02:40:56;;;;;;;10.73;4.88;;;-1.10;99.90;;;;;;4938412;29;20030;-93
2023/01/17 02:43:23;;;;;;;7.80;4.00;;;-1.20;99.90;;;;;;4925402;29;20150;-91
2023/01/17 02:45:49;;;;;;;12.93;4.47;;;-1.20;99.90;;;;;;4941811;29;20053;-95
2023/01/17 02:48:21;;;;;;;11.75;5.28;;;-1.20;99.90;;;;;;4938364;29;20031;-93
2023/01/17 02:50:52;;;;;;;11.95;4.40;;;-1.30;99.90;;;;;;4937915;29;20060;-92
2023/01/17 02:53:29;;;;;;;11.88;5.72;;;-1.20;99.90;;;;;;4938062;29;20039;-92
2023/01/17 02:56:04;;;;;;;13.10;5.30;;;-1.30;99.90;;;;;;4940285;29;20034;-95
2023/01/17 02:58:54;;;;;;;13.40;4.55;;;-1.30;99.90;;;;;;4923690;29;20081;-94
2023/01/17 03:01:38;;;;;;;19.10;8.07;;;-1.40;99.90;;;;;;4938570;29;20501;-93
2023/01/17 03:04:13;;;;;;;20.45;7.88;;;-1.40;99.90;;;;;;4919991;29;20046;-92
2023/01/17 03:06:59;;;;;;;11.82;4.78;;;-1.50;99.90;;;;;;4920112;29;20039;-91
2023/01/17 03:09:25;;;;;;;10.35;5.03;;;-1.50;99.90;;;;;;4936681;29;20114;-93
2023/01/17 03:11:51;;;;;;;15.50;7.10;;;-1.50;99.90;;;;;;4920689;29;20355;-93
2023/01/17 03:14:17;;;;;;;16.92;7.15;;;-1.50;99.90;;;;;;4920579;29;20024;-93
2023/01/17 03:16:44;;;;;;;14.48;6.63;;;-1.40;99.90;;;;;;4940514;29;20667;-94
2023/01/17 03:19:10;;;;;;;16.52;6.43;;;-1.50;99.90;;;;;;4941390;29;20118;-94
2023/01/17 03:21:35;;;;;;;13.85;6.22;;;-1.50;99.90;;;;;;4943217;29;20067;-94
2023/01/17 03:24:01;;;;;;;17.35;6.85;;;-1.50;99.90;;;;;;4928728;29;20103;-95
2023/01/17 03:26:27;;;;;;;18.33;7.35;;;-1.50;99.90;;;;;;4928266;29;20088;-92
2023/01/17 03:28:53;;;;;;;17.58;7.53;;;-1.50;99.90;;;;;;4928973;29;20082;-94
2023/01/17 03:31:18;;;;;;;17.77;5.63;;;-1.50;99.90;;;;;;4931543;29;20296;-92
2023/01/17 03:33:44;;;;;;;17.80;6.65;;;-1.40;99.90;;;;;;4931657;29;20123;-94
2023/01/17 03:36:11;;;;;;;12.93;6.47;;;-1.40;99.90;;;;;;4946937;29;20476;-93
2023/01/17 03:38:36;;;;;;;13.63;5.70;;;-1.40;99.90;;;;;;4927188;29;20054;-94
2023/01/17 03:41:03;;;;;;;15.40;5.90;;;-1.30;99.90;;;;;;4939987;29;20043;-94
2023/01/17 03:43:28;;;;;;;18.27;7.20;;;-1.30;99.90;;;;;;4925402;29;20043;-93
2023/01/17 03:46:04;;;;;;;18.83;8.05;;;-1.20;99.90;;;;;;4928561;29;20032;-94
2023/01/17 03:48:30;;;;;;;19.02;6.80;;;-1.20;99.90;;;;;;4924065;29;20044;-94
2023/01/17 03:50:56;;;;;;;16.38;5.88;;;-1.20;99.90;;;;;;4922483;29;20052;-94
2023/01/17 03:53:21;;;;;;;17.98;6.82;;;-1.20;99.90;;;;;;4922415;29;20060;-93
2023/01/17 03:55:47;;;;;;;20.35;7.07;;;-1.20;99.90;;;;;;4922837;29;20039;-94
2023/01/17 03:58:12;;;;;;;19.17;7.20;;;-1.20;99.90;;;;;;4925582;29;20039;-93
2023/01/17 04:00:38;;;;;;;25.50;9.05;;;-1.20;99.90;;;;;;4924410;29;20040;-93
2023/01/17 04:03:04;;;;;;;24.27;7.93;;;-1.20;99.90;;;;;;4938571;29;20027;-92
2023/01/17 04:05:30;;;;;;;19.40;7.32;;;-1.20;99.90;;;;;;4920903;29;20035;-94
2023/01/17 04:07:56;;;;;;;18.30;7.10;;;-1.20;99.90;;;;;;4937990;29;20042;-95
2023/01/17 04:10:21;;;;;;;22.75;7.63;;;-1.20;99.90;;;;;;4920987;29;20036;-94
2023/01/17 04:12:47;;;;;;;17.35;6.30;;;-1.20;99.90;;;;;;4937724;29;20118;-95
2023/01/17 04:15:13;;;;;;;17.30;6.22;;;-1.30;99.90;;;;;;4921188;29;20124;-95
2023/01/17 04:17:38;;;;;;;16.05;6.38;;;-1.30;99.90;;;;;;4920832;29;20032;-94
2023/01/17 04:20:04;;;;;;;19.88;6.72;;;-1.30;99.90;;;;;;4937894;29;20032;-94
2023/01/17 04:22:30;;;;;;;19.83;6.40;;;-1.30;99.90;;;;;;4938079;29;20031;-93
2023/01/17 04:24:57;;;;;;;16.75;6.20;;;-1.30;99.90;;;;;;4939405;29;20063;-94
2023/01/17 04:27:23;;;;;;;21.40;7.50;;;-1.30;99.90;;;;;;4921926;29;20536;-94
2023/01/17 04:29:48;;;;;;;19.85;6.97;;;-1.30;99.90;;;;;;4922791;29;20115;-94
2023/01/17 04:32:14;;;;;;;17.83;6.32;;;-1.30;99.90;;;;;;4922154;29;20114;-94
2023/01/17 04:34:40;;;;;;;21.77;7.60;;;-1.30;99.90;;;;;;4921362;29;20032;-94
2023/01/17 04:37:06;;;;;;;17.17;6.43;;;-1.30;99.90;;;;;;4922009;29;20035;-93
2023/01/17 04:39:31;;;;;;;18.98;6.53;;;-1.40;99.90;;;;;;4921858;29;20043;-93
2023/01/17 04:41:57;;;;;;;16.40;6.40;;;-1.40;99.90;;;;;;4923743;29;20060;-94
2023/01/17 04:44:22;;;;;;;16.05;5.63;;;-1.40;99.90;;;;;;4922808;29;20075;-94
2023/01/17 04:46:48;;;;;;;17.85;6.53;;;-1.40;99.90;;;;;;4939039;29;20023;-94
2023/01/17 04:49:14;;;;;;;18.20;7.05;;;-1.40;99.90;;;;;;4921847;29;20051;-94
2023/01/17 04:51:41;;;;;;;16.92;5.95;;;-1.40;99.90;;;;;;4922733;29;20035;-94
2023/01/17 04:54:07;;;;;;;19.50;6.22;;;-1.40;99.90;;;;;;4922308;29;20039;-94
2023/01/17 04:56:33;;;;;;;18.67;6.45;;;-1.50;99.90;;;;;;4922188;29;20046;-93
2023/01/17 04:59:00;;;;;;;16.35;5.43;;;-1.50;99.90;;;;;;4921635;29;20047;-93
2023/01/17 05:01:26;;;;;;;15.82;5.70;;;-1.50;99.90;;;;;;4921210;29;20039;-95
2023/01/17 05:03:52;;;;;;;15.50;5.63;;;-1.60;99.90;;;;;;4921582;29;20545;-93
2023/01/17 05:06:17;;;;;;;16.40;6.85;;;-1.60;99.90;;;;;;4921395;29;20541;-93
2023/01/17 05:08:43;;;;;;;14.63;5.40;;;-1.70;99.90;;;;;;4921236;29;20038;-92
2023/01/17 05:11:08;;;;;;;14.95;5.57;;;-1.70;99.90;;;;;;4920903;29;20031;-94
2023/01/17 05:13:34;;;;;;;13.07;5.22;;;-1.70;99.90;;;;;;4920649;29;20035;-93
2023/01/17 05:16:01;;;;;;;12.93;5.40;;;-1.80;99.90;;;;;;4920951;29;20036;-92
2023/01/17 05:18:27;;;;;;;14.63;5.75;;;-1.80;99.90;;;;;;4920700;29;20032;-93
2023/01/17 05:20:53;;;;;;;18.17;5.10;;;-1.80;99.90;;;;;;4938343;29;20031;-94
2023/01/17 05:23:18;;;;;;;14.25;5.38;;;-1.80;99.90;;;;;;4920446;29;20067;-95
2023/01/17 05:25:44;;;;;;;17.60;5.75;;;-1.80;99.90;;;;;;4920605;29;20579;-93
2023/01/17 05:28:11;;;;;;;17.95;5.75;;;-1.80;99.90;;;;;;4921410;29;20036;-93
2023/01/17 05:30:37;;;;;;;18.10;5.45;;;-1.80;99.90;;;;;;4938159;29;20019;-92
2023/01/17 05:33:03;;;;;;;14.60;5.40;;;-1.80;99.90;;;;;;4920795;29;20020;-93
2023/01/17 05:35:31;;;;;;;17.10;5.07;;;-1.80;99.90;;;;;;4938191;29;20031;-93
2023/01/17 05:37:57;;;;;;;9.05;3.85;;;-1.90;99.90;;;;;;4937113;29;20505;-93
2023/01/17 05:40:26;;;;;;;17.05;3.88;;;-1.90;99.90;;;;;;4936546;29;20031;-94
2023/01/17 05:42:54;;;;;;;14.50;5.03;;;-1.90;99.90;;;;;;4936908;29;20030;-93
2023/01/17 05:45:22;;;;;;;12.82;4.25;;;-1.90;99.90;;;;;;4920520;29;20028;-93
2023/01/17 05:47:52;;;;;;;12.57;4.65;;;-1.90;99.90;;;;;;4937299;29;20024;-93
2023/01/17 05:50:27;;;;;;;13.32;4.97;;;-2.00;99.90;;;;;;4937219;29;20119;-93
2023/01/17 05:52:55;;;;;;;10.13;4.00;;;-2.00;99.90;;;;;;4938373;29;20028;-94
2023/01/17 05:55:22;;;;;;;9.43;3.67;;;-2.00;99.90;;;;;;4921085;29;20047;-94
2023/01/17 05:57:49;;;;;;;12.45;4.60;;;-2.00;99.90;;;;;;4920818;29;20127;-92
2023/01/17 06:00:15;;;;;;;12.88;4.88;;;-2.10;99.90;;;;;;4920949;29;20036;-94
2023/01/17 06:02:41;;;;;;;12.02;4.55;;;-2.10;99.90;;;;;;4920378;29;20031;-92
2023/01/17 06:05:08;;;;;;;11.82;4.40;;;-2.10;99.90;;;;;;4936657;29;20032;-92
2023/01/17 06:07:33;;;;;;;16.83;5.07;;;-2.10;99.90;;;;;;4936681;29;20034;-93
2023/01/17 06:09:59;;;;;;;13.65;5.10;;;-2.20;99.90;;;;;;4918414;29;20048;-93
2023/01/17 06:12:25;;;;;;;15.40;5.00;;;-2.20;99.90;;;;;;4920339;29;20148;-94
2023/01/17 06:14:51;;;;;;;16.73;5.05;;;-2.20;99.90;;;;;;4920274;29;20094;-92
2023/01/17 06:17:16;;;;;;;17.73;4.43;;;-2.30;99.90;;;;;;4925469;29;20032;-93
2023/01/17 06:19:42;;;;;;;12.27;4.88;;;-2.30;99.90;;;;;;4927982;29;20131;-94
2023/01/17 06:22:07;;;;;;;7.88;3.95;;;-2.30;99.90;;;;;;4925493;29;20028;-94
2023/01/17 06:24:33;;;;;;;14.18;4.32;;;-2.30;99.90;;;;;;4923268;29;20406;-93
2023/01/17 06:26:59;;;;;;;19.85;6.30;;;-2.30;99.90;;;;;;4938286;29;20032;-94
2023/01/17 06:29:25;;;;;;;16.80;6.22;;;-2.30;99.90;;;;;;4936636;29;20474;-93
2023/01/17 06:31:51;;;;;;;21.35;6.97;;;-2.40;99.90;;;;;;4919899;29;20031;-93
2023/01/17 06:34:16;;;;;;;14.20;5.05;;;-2.40;99.90;;;;;;4921125;29;20439;-93
2023/01/17 06:36:42;;;;;;;12.45;4.82;;;-2.40;99.90;;;;;;4923565;29;20541;-94
2023/01/17 06:39:10;;;;;;;13.55;4.68;;;-2.40;99.90;;;;;;4943148;29;20470;-93
2023/01/17 06:41:36;;;;;;;14.55;5.30;;;-2.40;99.90;;;;;;4920416;29;20028;-93
2023/01/17 06:44:02;;;;;;;15.77;5.85;;;-2.40;99.90;;;;;;4918977;29;20030;-93
2023/01/17 06:46:28;;;;;;;15.63;4.68;;;-2.40;99.90;;;;;;4918194;29;20059;-94
2023/01/17 06:48:54;;;;;;;13.15;4.35;;;-2.50;99.90;;;;;;4917303;29;20024;-93
2023/01/17 06:51:20;;;;;;;11.45;4.40;;;-2.50;99.90;;;;;;4919986;29;20042;-93
2023/01/17 06:53:49;;;;;;;10.77;4.13;;;-2.50;99.90;;;;;;4920079;29;20474;-92
2023/01/17 06:56:14;;;;;;;11.10;3.65;;;-2.50;99.90;;;;;;4918960;29;20082;-94
2023/01/17 06:58:40;;;;;;;8.18;3.30;;;-2.50;99.90;;;;;;4916661;29;20032;-94
2023/01/17 07:01:13;;;;;;;15.40;5.15;;;-2.40;99.90;;;;;;4918274;29;20051;-95
2023/01/17 07:03:39;;;;;;;11.77;4.53;;;-2.40;99.90;;;;;;4934257;29;20157;-94
2023/01/17 07:06:05;;;;;;;10.30;4.18;;;-2.40;99.90;;;;;;4918519;29;20028;-93
2023/01/17 07:08:34;;;;;;;18.90;5.90;;;-2.40;99.90;;;;;;4920178;29;20024;-94
2023/01/17 07:11:02;;;;;;;19.88;5.75;;;-2.40;99.90;;;;;;4932641;29;20031;-93
2023/01/17 07:13:29;;;;;;;13.27;5.53;;;-2.50;99.90;;;;;;4927288;29;20413;-93
2023/01/17 07:16:10;;;;;;;12.23;5.55;;;-2.50;99.90;;;;;;4919421;29;20035;-93
2023/01/17 07:18:36;;;;;;;11.82;4.45;;;-2.50;99.90;;;;;;4919278;29;20370;-94
2023/01/17 07:21:02;;;;;;;13.02;5.53;;;-2.60;99.90;;;;;;4918420;29;20032;-93
2023/01/17 07:23:27;;;;;;;22.60;7.25;;;-2.60;99.90;;;;;;4919244;29;20031;-93
2023/01/17 07:25:55;;;;;;;19.50;6.90;;;-2.60;99.90;;;;;;4919375;29;20024;-92
2023/01/17 07:28:21;;;;;;;15.02;4.97;;;-2.60;99.90;;;;;;4920556;29;20028;-94
2023/01/17 07:30:46;;;;;;;15.15;4.65;;;-2.70;99.90;;;;;;4921017;29;20039;-92
2023/01/17 07:33:12;;;;;;;11.88;4.82;;;-2.70;99.90;;;;;;4921495;29;20028;-94
2023/01/17 07:35:38;;;;;;;11.50;4.45;;;-2.70;99.90;;;;;;4921550;29;20556;-93
2023/01/17 07:38:04;;;;;;;14.52;5.85;;;-2.70;99.90;;;;;;4921795;29;20098;-94
2023/01/17 07:40:31;;;;;;;13.05;4.68;;;-2.70;99.90;;;;;;4921229;29;20493;-94
2023/01/17 07:43:00;;;;;;;17.13;4.80;;;-2.60;99.90;;;;;;4922921;29;20557;-94
2023/01/17 07:45:26;;;;;;;11.85;4.50;;;-2.60;99.90;;;;;;4917679;29;20020;-92
2023/01/17 07:47:52;;;;;;;16.33;4.90;;;-2.50;99.90;;;;;;4901768;29;20034;-92
2023/01/17 07:50:18;;;;;;;12.40;4.45;;;-2.50;99.90;;;;;;4900769;29;20529;-94
2023/01/17 07:52:51;;;;;;;14.55;4.57;;;-2.50;99.90;;;;;;4901192;29;20035;-94
2023/01/17 07:55:16;;;;;;;12.50;4.38;;;-2.50;99.90;;;;;;4901315;29;20092;-93
2023/01/17 07:57:42;;;;;;;9.55;3.70;;;-2.50;99.90;;;;;;4921187;29;20032;-92
2023/01/17 08:00:08;;;;;;;15.85;5.05;;;-2.50;99.90;;;;;;4910010;29;20036;-93
2023/01/17 08:02:40;;;;;;;15.40;4.93;;;-2.50;99.90;;;;;;4910388;29;20028;-93
2023/01/17 08:05:06;;;;;;;16.77;4.95;;;-2.50;99.90;;;;;;4908499;29;20024;-93
2023/01/17 08:07:32;;;;;;;16.55;5.45;;;-2.50;99.90;;;;;;4910559;29;20028;-92
2023/01/17 08:09:59;;;;;;;19.33;6.50;;;-2.50;99.90;;;;;;4912155;29;20486;-93
2023/01/17 08:12:25;;;;;;;20.45;6.72;;;-2.50;99.90;;;;;;4929279;29;20036;-93
2023/01/17 08:14:50;;;;;;;19.90;7.45;;;-2.50;99.90;;;;;;4913753;29;20401;-93
2023/01/17 08:17:17;;;;;;;21.92;6.40;;;-2.50;99.90;;;;;;4908845;29;20060;-92
2023/01/17 08:19:43;;;;;;;14.48;6.00;;;-2.50;99.90;;;;;;4905970;29;20107;-94
2023/01/17 08:22:10;;;;;;;19.45;6.40;;;-2.50;99.90;;;;;;4907476;29;20088;-92
2023/01/17 08:24:37;;;;;;;19.45;6.20;;;-2.50;99.90;;;;;;4904882;29;20122;-91
2023/01/17 08:27:02;;;;;;;14.90;6.40;;;-2.50;99.90;;;;;;4925150;29;20039;-91
2023/01/17 08:29:29;;;;;;;19.10;5.72;;;-2.50;99.90;;;;;;4907140;29;20032;-92
2023/01/17 08:31:54;;;;;;;19.63;6.25;;;-2.50;99.90;;;;;;4904085;29;20056;-92
2023/01/17 08:34:21;;;;;;;14.98;5.30;;;-2.50;99.90;;;;;;4909468;29;20064;-91
2023/01/17 08:36:46;;;;;;;16.42;6.05;;;-2.40;99.90;;;;;;4914310;29;20032;-92
2023/01/17 08:39:13;;;;;;;17.50;6.43;;;-2.40;99.90;;;;;;4916547;29;20062;-93
2023/01/17 08:41:40;;;;;;;16.73;5.68;;;-2.50;99.90;;;;;;4930890;29;20406;-92
2023/01/17 08:44:06;;;;;;;17.75;6.25;;;-2.40;99.90;;;;;;4916297;29;20028;-92
2023/01/17 08:46:32;;;;;;;18.27;6.70;;;-2.40;99.90;;;;;;4915088;29;20028;-92
2023/01/17 08:48:58;;;;;;;17.83;5.80;;;-2.50;99.90;;;;;;4911615;29;20090;-91
2023/01/17 08:51:28;;;;;;;30.77;9.30;;;-2.50;99.90;;;;;;4934575;29;20040;-92
2023/01/17 08:53:55;;;;;;;32.25;13.27;;;-2.50;99.90;;;;;;4918583;29;20024;-92
2023/01/17 08:56:22;;;;;;;24.65;10.20;;;-2.50;99.90;;;;;;4914778;29;20032;-92
2023/01/17 08:58:48;;;;;;;22.17;9.02;;;-2.60;99.90;;;;;;4914655;29;20065;-92
2023/01/17 09:01:14;;;;;;;21.35;7.18;;;-2.60;99.90;;;;;;4914290;29;20055;-92
2023/01/17 09:03:40;;;;;;;17.45;6.50;;;-2.60;99.90;;;;;;4915679;29;20032;-92
2023/01/17 09:06:11;;;;;;;23.10;8.05;;;-2.60;99.90;;;;;;4914758;29;20032;-92
2023/01/17 09:08:38;;;;;;;18.80;7.10;;;-2.60;99.90;;;;;;4915381;29;20036;-92
2023/01/17 09:11:11;;;;;;;33.67;11.55;;;-2.50;99.90;;;;;;4915876;29;20031;-93
2023/01/17 09:13:37;;;;;;;17.38;7.00;;;-2.50;99.90;;;;;;4906621;29;20024;-91
2023/01/17 09:16:04;;;;;;;23.98;8.38;;;-2.50;99.90;;;;;;4910863;29;20024;-90
2023/01/17 09:18:32;;;;;;;16.92;6.90;;;-2.60;99.90;;;;;;4910794;29;20032;-93
2023/01/17 09:20:58;;;;;;;22.15;7.88;;;-2.60;99.90;;;;;;4913413;29;20091;-93
2023/01/17 09:23:26;;;;;;;28.63;9.57;;;-2.50;99.90;;;;;;4931593;29;20040;-91
2023/01/17 09:25:53;;;;;;;27.63;10.25;;;-2.50;99.90;;;;;;4916009;29;20038;-91
2023/01/17 09:28:19;;;;;;;30.98;10.70;;;-2.50;99.90;;;;;;4905378;29;20032;-93
2023/01/17 09:30:46;;;;;;;31.92;10.80;;;-2.40;99.90;;;;;;4903245;29;20080;-92
2023/01/17 09:33:11;;;;;;;23.23;8.23;;;-2.20;99.90;;;;;;4903074;29;20062;-92
2023/01/17 09:35:37;;;;;;;27.00;8.73;;;-2.10;99.90;;;;;;4902868;29;20056;-91
2023/01/17 09:38:03;;;;;;;24.73;8.57;;;-1.90;99.90;;;;;;4918954;29;20379;-92
2023/01/17 09:40:29;;;;;;;27.35;8.65;;;-1.60;99.90;;;;;;4902901;29;20051;-92
2023/01/17 09:43:00;;;;;;;28.02;8.65;;;-1.40;99.90;;;;;;4902990;29;20032;-93
2023/01/17 09:45:29;;;;;;;18.98;8.05;;;-1.20;99.90;;;;;;4902907;29;20113;-92
2023/01/17 09:47:56;;;;;;;18.08;6.55;;;-0.90;99.90;;;;;;4917975;29;20034;-92
2023/01/17 09:50:55;;;;;;;19.52;7.10;;;-0.60;99.90;;;;;;4922994;29;20047;-93
2023/01/17 09:53:21;;;;;;;16.25;6.00;;;-0.20;99.90;;;;;;4923436;29;20024;-92
2023/01/17 09:55:56;;;;;;;11.73;4.70;;;0.10;99.90;;;;;;4924090;29;20557;-92
2023/01/17 09:59:00;;;;;;;12.80;5.30;;;0.50;99.90;;;;;;4925065;29;20078;-93
2023/01/17 10:01:44;;;;;;;14.25;4.90;;;0.70;99.90;;;;;;4925661;29;20055;-95
2023/01/17 10:04:31;;;;;;;8.80;4.10;;;0.90;99.90;;;;;;4924583;29;20114;-94
2023/01/17 10:07:02;;;;;;;14.57;4.85;;;1.00;99.90;;;;;;4923116;29;20075;-93
2023/01/17 10:09:58;;;;;;;9.52;3.95;;;1.10;99.90;;;;;;4924990;29;20031;-94
2023/01/17 10:12:30;;;;;;;10.98;4.50;;;1.00;99.90;;;;;;4940383;29;20032;-94
2023/01/17 10:15:02;;;;;;;9.27;3.83;;;1.10;99.90;;;;;;4924949;29;20124;-95
2023/01/17 10:18:03;;;;;;;10.52;3.50;;;1.10;99.90;;;;;;4927019;29;20030;-94
2023/01/17 10:20:49;;;;;;;9.30;4.00;;;1.00;99.90;;;;;;4931534;29;20115;-95
2023/01/17 10:23:36;;;;;;;9.18;3.53;;;0.90;99.90;;;;;;4933425;29;20111;-95
2023/01/17 10:26:16;;;;;;;9.52;3.70;;;0.70;99.90;;;;;;4932744;29;20108;-93
2023/01/17 10:28:49;;;;;;;8.23;3.38;;;0.60;99.90;;;;;;4930664;29;20036;-94
2023/01/17 10:31:24;;;;;;;9.38;3.72;;;0.60;99.90;;;;;;4914437;29;20036;-96
2023/01/17 10:34:03;;;;;;;7.20;3.72;;;0.60;99.90;;;;;;4906842;29;20043;-93
2023/01/17 10:36:36;;;;;;;12.10;3.75;;;0.60;99.90;;;;;;4910352;29;20076;-94
2023/01/17 10:39:18;;;;;;;8.52;3.88;;;0.70;99.90;;;;;;4930652;29;20043;-91
2023/01/17 10:41:53;;;;;;;12.65;3.40;;;0.90;99.90;;;;;;4926178;29;20032;-92
2023/01/17 10:44:57;;;;;;;8.35;3.13;;;1.10;99.90;;;;;;4926756;28;20030;-89
2023/01/17 10:47:23;;;;;;;5.05;2.78;;;1.50;99.90;;;;;;4940495;29;20039;-92
2023/01/17 10:49:56;;;;;;;5.95;3.45;;;1.70;99.90;;;;;;4938679;29;20098;-93
2023/01/17 10:52:49;;;;;;;6.63;2.80;;;1.80;99.90;;;;;;4942126;28;20016;-90
2023/01/17 10:55:21;;;;;;;9.50;4.10;;;2.00;99.90;;;;;;4960322;28;20016;-88
2023/01/17 10:57:48;;;;;;;7.25;3.42;;;2.20;99.90;;;;;;4943364;28;20062;-86
2023/01/17 11:00:38;;;;;;;9.13;3.30;;;2.30;99.90;;;;;;4943511;29;20019;-90
2023/01/17 11:03:05;;;;;;;6.80;2.78;;;2.50;99.90;;;;;;4942873;29;20023;-89
2023/01/17 11:05:32;;;;;;;9.57;3.70;;;2.50;99.90;;;;;;4958066;29;20027;-92
2023/01/17 11:08:07;;;;;;;6.63;3.60;;;2.40;99.90;;;;;;4940797;29;20019;-91
2023/01/17 11:10:47;;;;;;;9.48;3.88;;;2.20;99.90;;;;;;4939018;29;20028;-93
2023/01/17 11:13:29;;;;;;;10.13;3.53;;;1.90;99.90;;;;;;4936014;29;20080;-92
2023/01/17 11:16:24;;;;;;;7.78;3.30;;;1.70;99.90;;;;;;4939200;29;20044;-91
2023/01/17 11:19:34;;;;;;;10.40;4.05;;;1.50;99.90;;;;;;4932327;29;20051;-92
2023/01/17 11:22:03;;;;;;;10.43;4.57;;;1.30;99.90;;;;;;4934876;29;20035;-94
2023/01/17 11:24:34;;;;;;;12.68;5.32;;;1.20;99.90;;;;;;4940351;28;20037;-90
2023/01/17 11:27:05;;;;;;;13.23;5.18;;;1.10;99.90;;;;;;4942071;29;20015;-92
2023/01/17 11:29:35;;;;;;;14.95;6.22;;;1.10;99.90;;;;;;4942023;29;20024;-90
2023/01/17 11:32:20;;;;;;;14.80;5.40;;;1.00;99.90;;;;;;4952055;29;20053;-93
2023/01/17 11:35:13;;;;;;;10.02;4.38;;;1.20;99.90;;;;;;4949408;29;20031;-93
2023/01/17 11:37:51;;;;;;;10.43;4.78;;;1.60;99.90;;;;;;4930154;29;20482;-95
2023/01/17 11:40:23;;;;;;;10.70;4.55;;;2.10;99.90;;;;;;4924864;29;20589;-93
2023/01/17 11:43:18;;;;;;;11.18;4.45;;;2.70;99.90;;;;;;4925844;29;20026;-95
2023/01/17 11:46:04;;;;;;;11.15;4.22;;;3.30;99.90;;;;;;4945463;29;20067;-95
2023/01/17 11:48:37;;;;;;;11.25;4.45;;;3.90;99.90;;;;;;4947343;29;20098;-94
2023/01/17 11:51:21;;;;;;;8.73;4.22;;;4.50;99.90;;;;;;4948653;29;20055;-94
2023/01/17 11:53:48;;;;;;;8.07;3.35;;;5.10;99.90;;;;;;4935056;29;20028;-95
2023/01/17 11:56:35;;;;;;;8.27;3.10;;;5.50;99.90;;;;;;4930679;29;20028;-93
2023/01/17 11:59:29;;;;;;;6.28;3.03;;;6.00;99.90;;;;;;4926624;29;20038;-94
2023/01/17 12:02:09;;;;;;;7.90;3.35;;;6.30;99.90;;;;;;4926897;29;20091;-96
2023/01/17 12:04:45;;;;;;;8.80;4.47;;;6.60;99.90;;;;;;4921740;29;20079;-93
2023/01/17 12:07:26;;;;;;;7.30;3.65;;;6.80;99.90;;;;;;4921310;29;20099;-94
2023/01/17 12:09:58;;;;;;;;;;;6.90;99.90;;;;;;4937246;29;20024;-93
2023/01/17 12:15:36;;;;;;;8.27;3.78;;;7.10;99.90;;;;;;4938345;29;20086;-94
2023/01/17 12:18:17;;;;;;;8.98;4.30;;;7.50;99.90;;;;;;4937303;29;20134;-94
2023/01/17 12:21:02;;;;;;;8.73;3.88;;;7.60;99.90;;;;;;4923592;29;20038;-94
2023/01/17 12:23:55;;;;;;;8.13;3.67;;;7.90;99.90;;;;;;4925798;29;20028;-95
2023/01/17 12:26:31;;;;;;;7.00;3.28;;;8.10;99.00;;;;;;4935684;29;20051;-96
2023/01/17 12:29:18;;;;;;;9.05;3.72;;;8.40;97.00;;;;;;4937392;29;20019;-93
2023/01/17 12:32:07;;;;;;;7.88;4.32;;;8.50;96.10;;;;;;4935935;29;20024;-93
2023/01/17 12:34:41;;;;;;;5.65;3.13;;;8.80;95.10;;;;;;4945582;29;20031;-94
2023/01/17 12:37:20;;;;;;;7.57;4.00;;;9.10;94.30;;;;;;4957391;29;20019;-93
2023/01/17 12:39:55;;;;;;;7.25;3.58;;;9.10;92.50;;;;;;4942898;29;20035;-94
2023/01/17 12:42:27;;;;;;;7.38;3.63;;;9.20;92.10;;;;;;4945527;29;20011;-94
2023/01/17 12:45:37;;;;;;;7.07;3.80;;;9.20;91.60;;;;;;4944863;29;20042;-94
2023/01/17 12:48:27;;;;;;;7.25;3.58;;;9.50;91.50;;;;;;4891137;29;20039;-95
2023/01/17 12:51:14;;;;;;;8.98;4.03;;;9.70;90.30;;;;;;4940047;29;20058;-95
2023/01/17 12:54:12;;;;;;;10.75;4.47;;;9.80;89.40;;;;;;4926385;29;20035;-95
2023/01/17 12:56:53;;;;;;;11.55;4.95;;;10.00;88.60;;;;;;4942528;29;20099;-95
2023/01/17 12:59:33;;;;;;;12.88;5.20;;;10.00;86.70;;;;;;4946603;29;20055;-96
2023/01/17 13:02:02;;;;;;;9.18;4.28;;;10.10;86.30;;;;;;4931337;29;20098;-95
2023/01/17 13:04:33;;;;;;;13.63;4.78;;;10.10;85.30;;;;;;4929125;29;20031;-96
2023/01/17 13:06:59;;;;;;;;;;;10.10;85.00;;;;;;4946566;29;20497;-95
2023/01/17 13:09:30;;;;;;;11.07;4.68;;;10.10;84.70;;;;;;4926763;29;19907;-94
2023/01/17 13:12:18;;;;;;;9.98;4.65;;;10.40;84.50;;;;;;4924713;29;20023;-95
2023/01/17 13:14:47;;;;;;;6.97;3.45;;;10.50;82.90;;;;;;4941560;29;20028;-94
2023/01/17 13:17:43;;;;;;;6.70;3.08;;;10.60;82.40;;;;;;4927709;29;20118;-95
2023/01/17 13:20:35;;;;;;;7.13;3.47;;;10.70;81.40;;;;;;4941027;29;20032;-94
2023/01/17 13:23:21;;;;;;;8.50;3.13;;;10.70;80.50;;;;;;4941487;29;20106;-95
2023/01/17 13:25:50;;;;;;;5.28;2.85;;;10.80;79.90;;;;;;4922366;29;20015;-96
2023/01/17 13:28:41;;;;;;;5.55;3.25;;;10.80;79.40;;;;;;4924858;29;20111;-95
2023/01/17 13:31:37;;;;;;;7.18;3.30;;;10.90;78.90;;;;;;4919909;29;20024;-94
2023/01/17 13:34:23;;;;;;;6.03;3.72;;;11.10;78.10;;;;;;4934982;29;20020;-92
2023/01/17 13:37:07;;;;;;;6.07;3.88;;;11.10;77.40;;;;;;4886056;29;20511;-93
2023/01/17 13:40:06;;;;;;;7.32;3.15;;;11.30;77.00;;;;;;4933399;29;20043;-93
2023/01/17 13:42:57;;;;;;;5.20;3.05;;;11.40;76.50;;;;;;4919087;29;20032;-92
2023/01/17 13:45:32;;;;;;;5.82;2.90;;;11.50;75.60;;;;;;4917824;29;20482;-92
2023/01/17 13:48:18;;;;;;;6.18;3.28;;;11.40;74.40;;;;;;4937028;29;20026;-93
2023/01/17 13:50:55;;;;;;;4.63;2.92;;;11.50;74.60;;;;;;4917700;29;20048;-93
2023/01/17 13:53:33;;;;;;;3.95;2.22;;;11.70;74.70;;;;;;4927903;29;20050;-93
2023/01/17 13:56:05;;;;;;;3.20;2.00;;;12.00;73.90;;;;;;4919838;29;20032;-91
2023/01/17 13:59:01;;;;;;;3.42;1.88;;;11.90;73.40;;;;;;4919568;29;20111;-93
2023/01/17 14:01:41;;;;;;;3.25;2.17;;;11.80;71.80;;;;;;4905274;29;20032;-92
2023/01/17 14:04:11;;;;;;;3.53;2.20;;;11.30;71.50;;;;;;4934755;29;20047;-94
2023/01/17 14:06:54;;;;;;;3.22;2.05;;;10.70;72.40;;;;;;4930953;29;20032;-92
2023/01/17 14:09:25;;;;;;;6.72;1.98;;;10.00;73.70;;;;;;4905908;29;20036;-91
2023/01/17 14:12:02;;;;;;;3.50;1.90;;;9.50;75.20;;;;;;4920600;29;20409;-92
2023/01/17 14:14:42;;;;;;;4.22;2.35;;;8.90;76.30;;;;;;4948308;29;20039;-92
2023/01/17 14:17:29;;;;;;;;;;;8.20;77.70;;;;;;4920512;29;20090;-93
2023/01/17 14:19:59;;;;;;;3.75;1.98;;;7.60;79.20;;;;;;4923206;29;19925;-92
2023/01/17 14:22:33;;;;;;;4.32;2.55;;;6.90;80.90;;;;;;4920367;29;20028;-92
2023/01/17 14:25:13;;;;;;;5.25;2.00;;;6.50;82.50;;;;;;4921237;29;20442;-92
2023/01/17 14:28:04;;;;;;;3.78;1.88;;;6.30;83.70;;;;;;4920489;29;20035;-91
2023/01/17 14:30:36;;;;;;;3.10;1.90;;;6.00;84.70;;;;;;4920524;29;20047;-90
2023/01/17 14:33:03;;;;;;;4.65;2.35;;;5.80;85.60;;;;;;4919998;29;20031;-90
2023/01/17 14:35:34;;;;;;;6.10;2.28;;;5.70;86.10;;;;;;4930672;29;20066;-90